Terminal Aerodrome Forecast
Issued by NWS Louisville, KY

Home | Current Version | Previous Version | Text Only | Print | Product List | Glossary On
Versions: 1 2 3 4 5 6 7 8 9 10 11 12 13 14 15 16 17 18 19 20
000
FTUS43 KLMK 190300 AAA
TAFSDF
TAF AMD
KSDF 190327Z 1903/2006 34010KT P6SM VCSH BKN025 OVC040
     FM190600 35004KT P6SM SCT040
     FM191300 VRB04KT P6SM FEW250=

USA.gov is the U.S. government's official web portal to all federal, state and local government web resources and services.